Time;durP1;ratioP1;P1;durP2;ratioP2;P2;SDS_P1;SDS_P2;PMS_P1;PMS_P2;Temp;Humidity;BMP_temperature;BMP_pressure;BME280_temperature;BME280_humidity;BME280_pressure;Samples;Min_cycle;Max_cycle;Signal;HPM_P1;HPM_P2
2023/02/21 02:14:07;;;;;;;0.82;0.55;;;18.00;42.80;;;;;;5113458;28;20180;-86
2023/02/21 02:16:46;;;;;;;0.65;0.57;;;18.00;42.90;;;;;;5096300;28;20164;-86
2023/02/21 02:19:38;;;;;;;0.50;0.40;;;18.00;43.60;;;;;;5113185;28;20152;-86
2023/02/21 02:22:30;;;;;;;0.82;0.65;;;18.00;42.80;;;;;;5114264;28;20681;-86
2023/02/21 02:25:16;;;;;;;0.95;0.47;;;18.00;42.80;;;;;;5096748;28;20168;-86
2023/02/21 02:28:07;;;;;;;0.38;0.35;;;18.00;42.80;;;;;;5096216;28;20160;-86
2023/02/21 02:30:52;;;;;;;0.50;0.50;;;18.00;42.90;;;;;;5112943;28;20156;-86
2023/02/21 02:33:52;;;;;;;0.90;0.68;;;18.00;42.90;;;;;;5113245;28;20160;-86
2023/02/21 02:36:39;;;;;;;0.57;0.57;;;18.00;42.90;;;;;;5112886;28;20164;-85
2023/02/21 02:39:24;;;;;;;0.45;0.45;;;18.00;43.00;;;;;;5095815;28;20626;-86
2023/02/21 02:42:07;;;;;;;1.13;0.57;;;17.90;43.00;;;;;;5112822;28;20187;-87
2023/02/21 02:44:40;;;;;;;1.52;0.55;;;17.90;43.00;;;;;;5112945;28;20155;-86
2023/02/21 02:47:07;;;;;;;0.60;0.50;;;18.00;43.00;;;;;;5112913;28;20152;-86
2023/02/21 02:49:34;;;;;;;1.38;0.50;;;18.00;43.00;;;;;;5095621;28;20638;-86
2023/02/21 02:52:03;;;;;;;0.60;0.60;;;18.00;42.90;;;;;;5095742;28;20171;-86
2023/02/21 02:54:29;;;;;;;0.95;0.60;;;17.90;43.00;;;;;;5112725;28;20201;-86
2023/02/21 02:56:54;;;;;;;0.73;0.60;;;18.00;42.90;;;;;;5112646;28;20156;-87
2023/02/21 02:59:22;;;;;;;0.73;0.70;;;18.00;43.00;;;;;;5112655;28;20534;-86
2023/02/21 03:02:08;;;;;;;0.63;0.55;;;18.00;43.70;;;;;;5095351;28;20219;-86
2023/02/21 03:04:44;;;;;;;0.68;0.60;;;18.00;43.10;;;;;;5096358;28;20164;-86
2023/02/21 03:07:27;;;;;;;0.43;0.35;;;18.00;43.10;;;;;;5112886;28;20554;-87
2023/02/21 03:10:17;;;;;;;1.05;0.90;;;17.90;43.00;;;;;;5112767;28;20591;-86
2023/02/21 03:13:07;;;;;;;0.40;0.40;;;17.90;43.00;;;;;;5098218;28;20516;-86
2023/02/21 03:15:37;;;;;;;0.50;0.50;;;18.00;43.10;;;;;;5112661;28;20168;-86
2023/02/21 03:18:09;;;;;;;0.60;0.60;;;17.90;43.10;;;;;;5112461;28;20152;-86
2023/02/21 03:20:34;;;;;;;0.68;0.47;;;17.90;43.10;;;;;;5095404;28;20183;-86
2023/02/21 03:23:00;;;;;;;1.00;0.50;;;18.00;43.20;;;;;;5095570;28;20199;-86
2023/02/21 03:25:26;;;;;;;0.65;0.50;;;17.90;43.10;;;;;;5095513;28;20542;-86
2023/02/21 03:27:51;;;;;;;0.60;0.55;;;18.00;43.10;;;;;;5095529;28;20164;-86
2023/02/21 03:30:17;;;;;;;0.60;0.57;;;18.00;43.20;;;;;;5112324;28;20171;-86
2023/02/21 03:32:52;;;;;;;1.23;0.52;;;17.90;43.10;;;;;;5095448;28;20653;-86
2023/02/21 03:35:18;;;;;;;0.50;0.50;;;17.90;43.00;;;;;;5095570;28;20236;-86
2023/02/21 03:37:46;;;;;;;1.00;0.43;;;18.00;43.20;;;;;;5095218;28;20258;-87
2023/02/21 03:40:16;;;;;;;0.50;0.50;;;18.00;43.20;;;;;;5112305;28;20164;-86
2023/02/21 03:42:42;;;;;;;1.20;0.55;;;18.00;43.20;;;;;;5098399;28;20198;-86
2023/02/21 03:45:09;;;;;;;0.85;0.60;;;17.90;43.20;;;;;;5116290;28;20239;-86
2023/02/21 03:47:34;;;;;;;0.52;0.50;;;17.90;43.10;;;;;;5099532;28;20601;-86
2023/02/21 03:50:00;;;;;;;0.50;0.40;;;17.90;43.10;;;;;;5099110;28;20610;-86
2023/02/21 03:52:26;;;;;;;0.93;0.70;;;17.90;43.30;;;;;;5116245;28;20187;-86
2023/02/21 03:54:52;;;;;;;1.80;0.50;;;17.90;43.20;;;;;;5117295;28;20159;-86
2023/02/21 03:57:17;;;;;;;0.50;0.50;;;17.90;43.30;;;;;;5117216;28;20155;-86
2023/02/21 03:59:43;;;;;;;0.52;0.50;;;17.90;43.20;;;;;;5117219;28;20152;-86
2023/02/21 04:02:09;;;;;;;0.55;0.50;;;17.90;43.20;;;;;;5115635;28;20224;-86
2023/02/21 04:04:35;;;;;;;0.60;0.60;;;17.90;43.30;;;;;;5115834;28;20202;-86
2023/02/21 04:07:00;;;;;;;0.98;0.57;;;17.90;43.30;;;;;;5099456;28;20167;-86
2023/02/21 04:09:26;;;;;;;0.60;0.60;;;17.80;43.30;;;;;;5116039;28;20168;-86
2023/02/21 04:11:52;;;;;;;0.95;0.70;;;17.80;43.30;;;;;;5115719;28;20201;-86
2023/02/21 04:14:17;;;;;;;0.80;0.45;;;17.80;43.30;;;;;;5099556;28;20199;-86
2023/02/21 04:16:44;;;;;;;0.73;0.50;;;17.90;43.40;;;;;;5098651;28;20207;-86
2023/02/21 04:19:10;;;;;;;3.70;0.70;;;17.90;43.40;;;;;;5115592;28;20579;-86
2023/02/21 04:21:35;;;;;;;0.85;0.50;;;17.90;43.50;;;;;;5098996;28;20701;-86
2023/02/21 04:24:01;;;;;;;0.73;0.55;;;17.90;43.40;;;;;;5115456;28;20518;-86
2023/02/21 04:26:28;;;;;;;0.88;0.65;;;17.90;43.40;;;;;;5115596;28;20156;-86
2023/02/21 04:28:55;;;;;;;0.50;0.50;;;17.90;43.50;;;;;;5115489;28;20163;-86
2023/02/21 04:31:20;;;;;;;0.65;0.50;;;17.90;43.50;;;;;;5115462;28;20145;-86
2023/02/21 04:33:46;;;;;;;0.50;0.50;;;17.90;43.50;;;;;;5098658;28;20224;-86
2023/02/21 04:36:12;;;;;;;0.50;0.50;;;17.90;43.50;;;;;;5098196;28;20625;-86
2023/02/21 04:38:38;;;;;;;0.85;0.63;;;17.90;43.60;;;;;;5098714;28;20575;-87
2023/02/21 04:41:04;;;;;;;0.43;0.43;;;17.90;43.40;;;;;;5098776;28;20172;-87
2023/02/21 04:43:30;;;;;;;0.95;0.70;;;17.80;43.50;;;;;;5098161;28;20208;-86
2023/02/21 04:45:55;;;;;;;0.75;0.70;;;17.90;43.50;;;;;;5115281;28;20486;-86
2023/02/21 04:48:21;;;;;;;0.55;0.40;;;17.90;43.50;;;;;;5115098;28;20494;-86
2023/02/21 04:50:47;;;;;;;0.50;0.40;;;17.90;43.60;;;;;;5098056;28;20217;-86
2023/02/21 04:53:12;;;;;;;0.77;0.63;;;17.80;43.50;;;;;;5097469;28;20574;-86
2023/02/21 04:55:38;;;;;;;2.92;0.60;;;17.80;43.60;;;;;;5114999;28;20152;-86
2023/02/21 04:58:04;;;;;;;0.85;0.70;;;17.80;43.60;;;;;;5097834;28;20168;-86
2023/02/21 05:00:29;;;;;;;0.70;0.70;;;17.80;43.60;;;;;;5114887;28;20152;-86
2023/02/21 05:02:55;;;;;;;1.73;0.65;;;17.80;43.70;;;;;;5097457;28;20254;-86
2023/02/21 05:05:21;;;;;;;0.60;0.50;;;17.80;43.70;;;;;;5114789;28;20249;-86
2023/02/21 05:07:46;;;;;;;0.93;0.50;;;17.80;43.60;;;;;;5114982;28;20153;-87
2023/02/21 05:10:14;;;;;;;0.70;0.50;;;17.80;43.60;;;;;;5097576;28;20232;-86
2023/02/21 05:12:39;;;;;;;0.70;0.70;;;17.80;43.70;;;;;;5114968;28;20175;-86
2023/02/21 05:15:05;;;;;;;1.15;0.50;;;17.80;43.60;;;;;;5114702;28;20587;-86
2023/02/21 05:17:31;;;;;;;0.43;0.43;;;17.80;43.70;;;;;;5114580;28;20162;-86
2023/02/21 05:19:57;;;;;;;0.40;0.40;;;17.80;43.60;;;;;;5097396;28;20251;-86
2023/02/21 05:22:23;;;;;;;1.08;0.60;;;17.80;43.70;;;;;;5097287;28;20196;-86
2023/02/21 05:24:48;;;;;;;0.70;0.40;;;17.80;43.60;;;;;;5097643;28;20657;-86
2023/02/21 05:27:15;;;;;;;0.82;0.60;;;17.80;43.70;;;;;;5097605;28;20171;-86
2023/02/21 05:29:45;;;;;;;0.40;0.40;;;17.80;43.70;;;;;;5115469;28;20627;-87
2023/02/21 05:32:10;;;;;;;0.60;0.55;;;17.80;43.70;;;;;;5098032;28;20182;-86
2023/02/21 05:34:36;;;;;;;0.63;0.60;;;17.80;43.70;;;;;;5097451;28;20542;-86
2023/02/21 05:37:01;;;;;;;0.50;0.50;;;17.80;43.80;;;;;;5114499;28;20184;-87
2023/02/21 05:39:27;;;;;;;1.15;0.60;;;17.80;43.80;;;;;;5097081;28;20209;-86
2023/02/21 05:41:54;;;;;;;0.88;0.60;;;17.80;43.80;;;;;;5113910;28;20217;-86
2023/02/21 05:44:20;;;;;;;0.90;0.63;;;17.80;43.90;;;;;;5096946;28;20152;-86
2023/02/21 05:46:46;;;;;;;14.25;1.13;;;17.80;43.80;;;;;;5096889;28;20160;-86
2023/02/21 05:49:12;;;;;;;1.08;0.52;;;17.80;43.90;;;;;;5096736;28;20301;-87
2023/02/21 05:51:39;;;;;;;0.68;0.50;;;17.80;43.90;;;;;;5096927;28;20164;-87
2023/02/21 05:54:06;;;;;;;0.50;0.50;;;17.80;43.90;;;;;;5114061;28;20155;-86
2023/02/21 05:56:38;;;;;;;1.10;0.50;;;17.80;43.90;;;;;;5097309;28;20250;-87
2023/02/21 05:59:03;;;;;;;1.13;0.50;;;17.80;44.00;;;;;;5113735;28;20189;-86
2023/02/21 06:01:29;;;;;;;0.32;0.30;;;17.80;44.00;;;;;;5113467;28;20208;-86
2023/02/21 06:03:55;;;;;;;0.50;0.40;;;17.80;44.00;;;;;;5113534;28;20607;-86
2023/02/21 06:06:20;;;;;;;0.63;0.60;;;17.80;43.90;;;;;;5096502;28;20172;-86
2023/02/21 06:08:47;;;;;;;0.73;0.52;;;17.80;43.90;;;;;;5096941;28;20224;-86
2023/02/21 06:11:12;;;;;;;0.95;0.60;;;17.80;44.60;;;;;;5113615;28;20526;-86
2023/02/21 06:13:38;;;;;;;0.50;0.50;;;17.80;43.90;;;;;;5096445;28;20187;-86
2023/02/21 06:16:04;;;;;;;0.60;0.52;;;17.70;43.90;;;;;;5113452;28;20188;-86
2023/02/21 06:18:30;;;;;;;0.40;0.40;;;17.70;44.60;;;;;;5096253;28;20176;-86
2023/02/21 06:20:55;;;;;;;0.40;0.40;;;17.80;44.00;;;;;;5096402;28;20172;-86
2023/02/21 06:23:21;;;;;;;0.40;0.40;;;17.70;44.00;;;;;;5096419;28;20278;-86
2023/02/21 06:25:47;;;;;;;0.90;0.50;;;17.70;44.00;;;;;;5113485;28;20152;-86
2023/02/21 06:28:12;;;;;;;0.60;0.60;;;17.80;44.10;;;;;;5113131;28;20152;-86
2023/02/21 06:30:38;;;;;;;1.38;0.55;;;17.70;44.00;;;;;;5113168;28;20256;-87
2023/02/21 06:33:03;;;;;;;0.60;0.60;;;17.80;44.10;;;;;;5096437;28;20190;-86
2023/02/21 06:35:29;;;;;;;0.95;0.50;;;17.80;44.80;;;;;;5114378;28;20163;-86
2023/02/21 06:37:55;;;;;;;0.98;0.50;;;17.80;44.10;;;;;;5113011;28;20607;-86
2023/02/21 06:40:20;;;;;;;1.35;0.65;;;17.80;44.10;;;;;;5112880;28;20152;-86
2023/02/21 06:42:46;;;;;;;0.82;0.50;;;17.80;44.00;;;;;;5095876;28;20278;-86
2023/02/21 06:45:12;;;;;;;0.50;0.50;;;17.70;44.00;;;;;;5112890;28;20157;-86
2023/02/21 06:47:37;;;;;;;0.68;0.68;;;17.80;44.00;;;;;;5096683;28;20649;-87
2023/02/21 06:50:03;;;;;;;0.50;0.50;;;17.80;44.10;;;;;;5095780;28;20160;-86
2023/02/21 06:52:30;;;;;;;0.70;0.50;;;17.80;44.10;;;;;;5112741;28;20152;-86
2023/02/21 06:54:56;;;;;;;0.55;0.45;;;17.80;44.00;;;;;;5096344;28;20172;-84
2023/02/21 06:57:21;;;;;;;0.70;0.50;;;17.80;44.10;;;;;;5095699;28;20164;-86
2023/02/21 06:59:47;;;;;;;0.93;0.70;;;17.70;44.10;;;;;;5112693;28;20269;-86
2023/02/21 07:02:17;;;;;;;0.40;0.40;;;17.70;44.10;;;;;;5095630;28;20235;-86
2023/02/21 07:04:43;;;;;;;0.50;0.50;;;17.80;44.10;;;;;;5112809;28;20610;-86
2023/02/21 07:07:09;;;;;;;0.47;0.47;;;17.80;44.10;;;;;;5112858;28;20154;-86
2023/02/21 07:09:34;;;;;;;0.55;0.55;;;17.80;44.10;;;;;;5112896;28;20152;-86
2023/02/21 07:12:02;;;;;;;0.50;0.32;;;17.80;44.20;;;;;;5112982;28;20155;-86
2023/02/21 07:14:27;;;;;;;0.40;0.40;;;17.70;44.20;;;;;;5114299;28;20156;-85
2023/02/21 07:16:53;;;;;;;0.70;0.60;;;17.80;44.20;;;;;;5113772;28;20532;-85
2023/02/21 07:19:19;;;;;;;0.57;0.50;;;17.70;44.20;;;;;;5112690;28;20164;-86
2023/02/21 07:21:44;;;;;;;0.90;0.52;;;17.70;44.30;;;;;;5096187;28;20179;-85
2023/02/21 07:24:10;;;;;;;0.60;0.40;;;17.70;44.40;;;;;;5096240;28;20175;-86
2023/02/21 07:26:36;;;;;;;0.60;0.50;;;17.70;44.30;;;;;;5114802;28;20155;-86
2023/02/21 07:29:03;;;;;;;0.70;0.50;;;17.70;44.40;;;;;;5113284;28;20148;-85
2023/02/21 07:31:28;;;;;;;0.50;0.50;;;17.70;44.30;;;;;;5096207;28;20168;-85
2023/02/21 07:33:55;;;;;;;0.52;0.50;;;17.70;44.40;;;;;;5096004;28;20174;-85
2023/02/21 07:36:22;;;;;;;0.47;0.47;;;17.70;44.20;;;;;;5113486;28;20156;-86
2023/02/21 07:38:47;;;;;;;0.95;0.60;;;17.90;43.80;;;;;;5096437;28;20179;-86
2023/02/21 07:41:13;;;;;;;0.70;0.68;;;18.00;43.60;;;;;;5096478;28;20618;-85
2023/02/21 07:43:39;;;;;;;0.90;0.43;;;18.10;43.60;;;;;;5096006;28;20654;-86
2023/02/21 07:46:10;;;;;;;1.00;0.60;;;18.00;43.50;;;;;;5096053;28;20255;-86
2023/02/21 07:48:36;;;;;;;1.58;0.50;;;18.10;43.50;;;;;;5095868;28;20641;-85
2023/02/21 07:51:02;;;;;;;0.60;0.52;;;18.10;43.20;;;;;;5114981;28;20192;-86
2023/02/21 07:53:28;;;;;;;0.60;0.60;;;18.10;43.30;;;;;;5096512;28;20180;-85
2023/02/21 07:55:54;;;;;;;0.70;0.50;;;18.10;43.60;;;;;;5112939;28;20168;-86
2023/02/21 07:58:20;;;;;;;0.40;0.40;;;18.10;43.50;;;;;;5112490;28;20168;-86
2023/02/21 08:00:45;;;;;;;0.60;0.50;;;18.20;43.60;;;;;;5113869;28;20157;-85
2023/02/21 08:03:14;;;;;;;0.52;0.52;;;18.10;43.50;;;;;;5113179;28;20565;-85
2023/02/21 08:05:40;;;;;;;0.60;0.60;;;18.10;43.20;;;;;;5097478;28;20168;-86
2023/02/21 08:08:14;;;;;;;1.95;0.55;;;18.20;43.30;;;;;;5096286;28;20614;-85
2023/02/21 08:10:39;;;;;;;1.13;0.65;;;18.20;43.20;;;;;;5075362;28;20298;-85
2023/02/21 08:13:05;;;;;;;0.57;0.57;;;18.20;43.40;;;;;;5058871;28;20193;-86
2023/02/21 08:15:38;;;;;;;0.63;0.52;;;18.20;43.30;;;;;;5075022;28;20208;-86
2023/02/21 08:18:04;;;;;;;0.40;0.40;;;18.20;43.20;;;;;;5059383;28;20234;-85
2023/02/21 08:20:29;;;;;;;0.40;0.40;;;18.20;43.30;;;;;;5075935;28;20168;-86
2023/02/21 08:23:00;;;;;;;0.63;0.45;;;18.30;43.20;;;;;;5057633;28;20197;-87
2023/02/21 08:25:26;;;;;;;0.70;0.60;;;18.30;43.10;;;;;;5091046;28;20265;-87
2023/02/21 08:27:54;;;;;;;0.60;0.55;;;18.30;43.20;;;;;;5074584;28;20220;-87
2023/02/21 08:30:20;;;;;;;0.40;0.40;;;18.30;43.20;;;;;;5061882;28;20175;-86
2023/02/21 08:32:47;;;;;;;1.08;0.50;;;18.30;43.40;;;;;;5077862;28;20176;-87
2023/02/21 08:35:14;;;;;;;0.45;0.45;;;18.20;43.40;;;;;;5061133;28;20192;-86
2023/02/21 08:37:44;;;;;;;0.50;0.40;;;18.20;43.40;;;;;;5060307;28;20623;-85
2023/02/21 08:40:10;;;;;;;1.08;0.50;;;18.20;43.50;;;;;;5061524;28;20180;-87
2023/02/21 08:42:39;;;;;;;0.65;0.50;;;18.20;43.70;;;;;;5061125;28;20205;-86
2023/02/21 08:45:10;;;;;;;1.05;0.60;;;18.20;43.40;;;;;;5078213;28;20232;-87
2023/02/21 08:47:36;;;;;;;2.08;0.60;;;18.30;43.10;;;;;;5060321;28;20173;-87
2023/02/21 08:50:07;;;;;;;1.70;0.60;;;18.30;43.40;;;;;;5077293;28;20161;-87
2023/02/21 08:52:34;;;;;;;1.48;0.63;;;18.30;43.40;;;;;;5061708;28;20179;-86
2023/02/21 08:55:10;;;;;;;6.47;0.90;;;18.40;42.70;;;;;;5089767;28;20225;-87
2023/02/21 08:57:36;;;;;;;1.40;0.70;;;18.50;42.90;;;;;;5100773;28;20259;-87
2023/02/21 09:00:04;;;;;;;1.75;0.63;;;18.50;42.90;;;;;;5116088;28;20195;-87
2023/02/21 09:02:32;;;;;;;2.28;0.52;;;18.50;42.60;;;;;;5100301;28;20697;-86
2023/02/21 09:04:58;;;;;;;2.55;0.73;;;18.50;43.00;;;;;;5118880;28;20246;-87
2023/02/21 09:07:24;;;;;;;2.10;0.55;;;18.40;42.90;;;;;;5116313;28;20147;-88
2023/02/21 09:09:50;;;;;;;5.97;0.80;;;18.50;42.80;;;;;;5118179;28;20151;-87
2023/02/21 09:12:16;;;;;;;3.03;0.75;;;18.50;43.30;;;;;;5099964;28;20166;-87
2023/02/21 09:14:42;;;;;;;3.17;0.70;;;18.50;42.70;;;;;;5098405;28;20176;-87
2023/02/21 09:17:10;;;;;;;4.05;0.60;;;18.60;42.60;;;;;;5100901;28;20237;-87
2023/02/21 09:19:36;;;;;;;1.85;0.60;;;18.60;43.10;;;;;;5100807;28;20180;-87
2023/02/21 09:22:07;;;;;;;0.88;0.45;;;18.50;43.10;;;;;;5098796;28;20197;-88
2023/02/21 09:24:34;;;;;;;1.98;0.70;;;18.60;42.70;;;;;;5116191;28;20144;-88
2023/02/21 09:27:01;;;;;;;4.95;0.63;;;18.60;42.50;;;;;;5117009;28;20184;-87
2023/02/21 09:29:29;;;;;;;4.53;0.68;;;18.70;42.80;;;;;;5118550;28;20197;-87
2023/02/21 09:31:55;;;;;;;1.73;1.00;;;18.70;43.00;;;;;;5117001;28;20149;-87
2023/02/21 09:34:21;;;;;;;2.45;0.68;;;18.70;42.60;;;;;;5116466;28;20167;-87
2023/02/21 09:36:47;;;;;;;2.13;0.70;;;18.70;43.00;;;;;;5101682;28;20664;-86
2023/02/21 09:39:13;;;;;;;4.35;0.95;;;18.60;43.10;;;;;;5103076;28;20164;-86
2023/02/21 09:41:42;;;;;;;3.75;0.57;;;18.60;43.00;;;;;;5116685;28;20609;-87
2023/02/21 09:44:11;;;;;;;2.05;0.75;;;18.60;43.50;;;;;;5119391;28;20225;-87
2023/02/21 09:46:39;;;;;;;3.80;0.93;;;18.60;43.20;;;;;;5103025;28;20160;-87
2023/02/21 09:49:18;;;;;;;2.75;0.80;;;18.60;42.60;;;;;;5102018;28;20164;-86
2023/02/21 09:51:44;;;;;;;7.90;0.90;;;18.70;42.30;;;;;;5103775;28;20164;-87
2023/02/21 09:54:27;;;;;;;3.83;0.88;;;18.70;43.00;;;;;;5119487;28;20163;-87
2023/02/21 09:56:53;;;;;;;6.20;1.00;;;18.70;43.00;;;;;;5119193;28;20152;-87
2023/02/21 09:59:19;;;;;;;3.05;0.80;;;18.70;42.90;;;;;;5103408;28;20176;-86
2023/02/21 10:02:22;;;;;;;7.80;1.10;;;18.70;42.60;;;;;;5119706;28;20223;-87
2023/02/21 10:05:21;;;;;;;3.25;0.70;;;18.80;42.80;;;;;;5107522;28;20175;-86
2023/02/21 10:08:08;;;;;;;5.35;0.80;;;18.80;42.50;;;;;;5104395;28;20164;-87
2023/02/21 10:10:48;;;;;;;4.28;1.15;;;18.80;43.20;;;;;;5103080;28;20175;-87
2023/02/21 10:13:34;;;;;;;2.47;0.60;;;18.80;42.90;;;;;;5103750;28;20172;-87
2023/02/21 10:16:12;;;;;;;1.85;0.65;;;18.80;43.30;;;;;;5102564;28;20229;-85
2023/02/21 10:19:00;;;;;;;3.03;0.68;;;18.70;43.50;;;;;;5104080;28;20586;-87
2023/02/21 10:21:32;;;;;;;1.92;0.85;;;18.70;43.30;;;;;;5120635;28;20148;-87
2023/02/21 10:24:03;;;;;;;3.00;0.93;;;18.70;42.60;;;;;;5102057;28;20238;-87
2023/02/21 10:26:33;;;;;;;3.75;0.77;;;18.80;42.80;;;;;;5120249;28;20179;-88
2023/02/21 10:28:59;;;;;;;2.05;0.90;;;18.90;42.50;;;;;;5103555;28;20262;-87
2023/02/21 10:31:30;;;;;;;2.88;0.95;;;18.90;42.50;;;;;;5101543;28;20660;-86
2023/02/21 10:33:58;;;;;;;3.22;0.70;;;18.90;42.40;;;;;;5101707;28;20650;-87
2023/02/21 10:36:24;;;;;;;3.22;0.88;;;19.00;42.60;;;;;;5102606;28;20168;-86
2023/02/21 10:39:12;;;;;;;1.42;0.60;;;19.00;42.60;;;;;;5134852;27;20170;-86
2023/02/21 10:41:39;;;;;;;2.53;1.15;;;19.00;42.70;;;;;;5132316;27;20275;-85
2023/02/21 10:44:09;;;;;;;2.17;0.80;;;19.00;42.40;;;;;;5118119;27;20211;-87
2023/02/21 10:46:44;;;;;;;1.52;0.73;;;19.10;42.50;;;;;;5117041;27;20171;-86
2023/02/21 10:49:27;;;;;;;2.13;0.55;;;19.00;42.40;;;;;;5131715;27;20151;-86
2023/02/21 10:52:15;;;;;;;1.17;0.63;;;19.00;42.70;;;;;;5093288;28;20615;-86
2023/02/21 10:54:41;;;;;;;3.08;0.70;;;19.10;42.60;;;;;;5093857;28;20185;-87
2023/02/21 10:57:09;;;;;;;1.10;0.90;;;19.00;42.70;;;;;;5094560;28;20145;-86
2023/02/21 10:59:41;;;;;;;1.25;0.60;;;19.00;42.50;;;;;;5095295;28;20660;-86
2023/02/21 11:02:32;;;;;;;1.95;0.75;;;19.00;42.30;;;;;;5092233;28;20274;-86
2023/02/21 11:05:16;;;;;;;1.30;0.70;;;19.10;42.20;;;;;;5094858;28;20153;-85
2023/02/21 11:07:52;;;;;;;4.75;0.82;;;19.10;42.30;;;;;;5095564;28;20164;-85
2023/02/21 11:10:33;;;;;;;2.40;0.80;;;19.10;42.40;;;;;;5096409;28;20160;-86
2023/02/21 11:13:02;;;;;;;0.75;0.70;;;19.10;42.60;;;;;;5111234;28;20495;-85
2023/02/21 11:15:28;;;;;;;1.35;0.80;;;19.10;42.50;;;;;;5113202;28;20156;-86
2023/02/21 11:18:10;;;;;;;1.48;0.65;;;19.00;42.40;;;;;;5112692;28;20156;-86
2023/02/21 11:20:36;;;;;;;2.58;0.80;;;19.00;42.20;;;;;;5130838;27;20152;-86
2023/02/21 11:23:05;;;;;;;1.20;0.52;;;19.00;42.10;;;;;;5129463;28;20183;-86
2023/02/21 11:25:32;;;;;;;4.72;0.70;;;18.90;42.30;;;;;;5110890;28;20156;-85
2023/02/21 11:28:01;;;;;;;1.17;0.70;;;18.90;42.80;;;;;;5112204;28;20152;-86
2023/02/21 11:30:27;;;;;;;0.73;0.68;;;18.80;42.70;;;;;;5112844;28;20247;-86
2023/02/21 11:32:55;;;;;;;2.92;0.82;;;18.80;42.30;;;;;;5112674;28;20251;-86
2023/02/21 11:35:23;;;;;;;0.90;0.70;;;18.80;42.80;;;;;;5112002;28;20152;-86
2023/02/21 11:38:04;;;;;;;3.78;1.00;;;18.80;42.20;;;;;;5130094;27;20160;-86
2023/02/21 11:40:42;;;;;;;0.63;0.60;;;18.90;42.40;;;;;;5096659;28;20619;-86
2023/02/21 11:43:23;;;;;;;1.77;0.65;;;18.90;42.60;;;;;;5130329;27;20182;-86
2023/02/21 11:46:04;;;;;;;0.70;0.70;;;18.90;42.50;;;;;;5095520;28;20273;-86
2023/02/21 11:48:46;;;;;;;1.25;0.70;;;18.80;42.40;;;;;;5129977;27;20152;-86
2023/02/21 11:51:25;;;;;;;0.70;0.60;;;18.80;42.60;;;;;;5112623;28;20158;-87
2023/02/21 11:53:50;;;;;;;0.60;0.60;;;18.80;42.60;;;;;;5131157;27;20232;-87
2023/02/21 11:56:40;;;;;;;1.25;0.75;;;18.80;42.60;;;;;;5129801;27;20188;-86
2023/02/21 11:59:38;;;;;;;2.65;0.80;;;18.80;42.30;;;;;;5115694;28;20208;-86
2023/02/21 12:02:42;;;;;;;0.95;0.85;;;18.90;42.40;;;;;;5112945;28;20223;-86
2023/02/21 12:05:42;;;;;;;1.73;0.93;;;18.90;42.20;;;;;;5116621;28;20156;-86
2023/02/21 12:08:22;;;;;;;0.70;0.70;;;18.90;42.40;;;;;;5116375;28;20164;-85
2023/02/21 12:11:22;;;;;;;0.65;0.65;;;18.90;42.20;;;;;;5116960;28;20159;-85
2023/02/21 12:13:59;;;;;;;0.95;0.80;;;18.90;41.90;;;;;;5116815;28;20201;-86
2023/02/21 12:16:51;;;;;;;0.70;0.60;;;18.90;42.00;;;;;;5134104;27;20263;-86
2023/02/21 12:19:32;;;;;;;1.08;0.75;;;19.00;42.00;;;;;;5130313;27;20557;-84
2023/02/21 12:22:21;;;;;;;2.30;0.80;;;18.90;42.20;;;;;;5116785;28;20160;-85
2023/02/21 12:24:57;;;;;;;0.98;0.88;;;18.90;42.10;;;;;;5098627;28;20531;-86
2023/02/21 12:27:35;;;;;;;1.00;0.70;;;18.80;42.10;;;;;;5116526;27;20201;-86
2023/02/21 12:30:25;;;;;;;0.93;0.70;;;18.80;42.10;;;;;;5133559;27;20575;-86
2023/02/21 12:33:15;;;;;;;1.00;0.90;;;18.80;41.90;;;;;;5098957;28;20167;-86
2023/02/21 12:36:01;;;;;;;2.05;0.98;;;18.90;41.90;;;;;;5134471;27;20243;-87
2023/02/21 12:38:41;;;;;;;1.40;0.80;;;18.90;41.70;;;;;;5115948;28;20250;-87
2023/02/21 12:41:26;;;;;;;0.80;0.80;;;18.90;41.80;;;;;;5134427;27;20198;-86
2023/02/21 12:44:12;;;;;;;0.80;0.70;;;18.80;41.80;;;;;;5116470;28;20210;-86
2023/02/21 12:46:41;;;;;;;1.20;0.80;;;18.80;41.80;;;;;;5115653;28;20153;-85
2023/02/21 12:49:24;;;;;;;1.05;0.80;;;18.90;41.60;;;;;;5132994;27;20148;-85
2023/02/21 12:51:58;;;;;;;1.15;0.70;;;18.90;41.60;;;;;;5117022;28;20148;-85
2023/02/21 12:54:45;;;;;;;1.30;0.85;;;18.90;41.60;;;;;;5133776;27;20197;-87
2023/02/21 12:57:17;;;;;;;0.63;0.63;;;18.90;41.70;;;;;;5117607;28;20269;-86
2023/02/21 13:00:16;;;;;;;1.88;0.90;;;18.80;41.70;;;;;;5134520;27;20183;-87
2023/02/21 13:03:09;;;;;;;1.98;0.82;;;18.80;41.70;;;;;;5115282;28;20294;-85
2023/02/21 13:05:41;;;;;;;0.75;0.70;;;18.90;41.40;;;;;;5130931;27;20168;-86
2023/02/21 13:08:20;;;;;;;1.08;0.80;;;18.80;41.60;;;;;;5115230;27;20225;-85
2023/02/21 13:11:02;;;;;;;0.82;0.80;;;18.80;41.50;;;;;;5112561;28;20169;-85
2023/02/21 13:13:31;;;;;;;1.05;0.80;;;18.80;42.00;;;;;;5095988;28;20159;-86
2023/02/21 13:16:00;;;;;;;3.63;1.20;;;18.80;41.20;;;;;;5098359;28;20153;-86
2023/02/21 13:18:29;;;;;;;1.13;0.90;;;18.80;41.10;;;;;;5100701;28;20153;-84
2023/02/21 13:21:01;;;;;;;1.00;0.88;;;18.90;41.00;;;;;;5082351;28;20234;-85
2023/02/21 13:27:08;;;;;;;0.73;0.70;;;18.90;40.80;;;;;;5095865;28;20187;-85
2023/02/21 13:29:36;;;;;;;2.13;0.90;;;18.90;41.00;;;;;;5078018;28;20164;-85
2023/02/21 13:32:11;;;;;;;3.50;1.20;;;18.80;40.70;;;;;;5077562;28;20634;-85
2023/02/21 13:34:39;;;;;;;1.88;1.05;;;18.90;40.90;;;;;;5077553;28;20160;-85
2023/02/21 13:37:08;;;;;;;4.68;1.05;;;18.90;40.90;;;;;;5094474;28;20145;-84
2023/02/21 13:39:36;;;;;;;4.13;1.10;;;18.80;41.00;;;;;;5106969;28;20633;-85
2023/02/21 13:42:08;;;;;;;2.03;1.00;;;18.90;41.00;;;;;;5131743;27;20161;-85
2023/02/21 13:44:39;;;;;;;5.13;1.00;;;18.80;40.70;;;;;;5102040;28;20176;-85
2023/02/21 13:47:12;;;;;;;4.50;1.25;;;18.80;40.70;;;;;;5094240;28;20156;-85
2023/02/21 13:49:54;;;;;;;3.25;1.20;;;18.80;40.50;;;;;;5094446;28;20623;-85
2023/02/21 13:52:35;;;;;;;2.30;1.13;;;18.80;40.70;;;;;;5095359;28;20172;-85
2023/02/21 13:55:22;;;;;;;12.68;1.38;;;18.90;40.60;;;;;;5126206;27;20162;-85
2023/02/21 13:57:59;;;;;;;3.53;1.20;;;18.80;40.70;;;;;;5077819;28;20657;-86
2023/02/21 14:00:45;;;;;;;7.82;1.30;;;18.80;40.80;;;;;;5084733;28;20185;-85
2023/02/21 14:03:29;;;;;;;1.23;1.08;;;18.90;40.70;;;;;;5104166;28;20579;-85
2023/02/21 14:06:25;;;;;;;3.65;1.15;;;18.80;40.60;;;;;;5113850;28;20514;-85
2023/02/21 14:08:57;;;;;;;1.98;1.10;;;18.80;40.50;;;;;;5114015;28;20240;-85
2023/02/21 14:11:27;;;;;;;5.07;1.05;;;18.80;40.30;;;;;;5114951;28;20174;-85
2023/02/21 14:14:04;;;;;;;4.35;1.20;;;18.80;40.30;;;;;;5131063;27;20233;-85
2023/02/21 14:16:34;;;;;;;1.58;1.27;;;18.80;40.00;;;;;;5105956;28;20162;-84
2023/02/21 14:19:06;;;;;;;1.63;1.13;;;18.90;39.90;;;;;;5100740;28;20217;-85
2023/02/21 14:22:02;;;;;;;2.88;1.23;;;18.90;39.60;;;;;;5116026;28;20642;-84
2023/02/21 14:24:34;;;;;;;2.83;1.05;;;18.90;40.10;;;;;;5097137;28;20178;-84
2023/02/21 14:27:04;;;;;;;2.30;1.10;;;18.90;40.20;;;;;;5114784;27;20639;-85
2023/02/21 14:29:43;;;;;;;1.30;1.13;;;18.90;40.00;;;;;;5107609;28;20665;-85
2023/02/21 14:32:30;;;;;;;2.08;1.08;;;18.90;39.80;;;;;;5128891;27;20255;-85
2023/02/21 14:34:56;;;;;;;2.83;0.90;;;18.90;39.70;;;;;;5095246;28;20185;-86
2023/02/21 14:37:32;;;;;;;6.70;1.20;;;18.80;39.70;;;;;;5127967;27;20191;-88
2023/02/21 14:40:00;;;;;;;3.05;1.20;;;18.80;39.70;;;;;;5102120;28;20626;-87
2023/02/21 14:42:39;;;;;;;1.52;1.10;;;18.80;39.70;;;;;;5120714;28;20192;-88
2023/02/21 14:45:22;;;;;;;1.15;1.05;;;18.80;39.50;;;;;;5096416;28;20656;-87
2023/02/21 14:47:56;;;;;;;1.35;1.20;;;18.90;39.60;;;;;;5118351;28;20216;-86
2023/02/21 14:50:31;;;;;;;3.33;1.40;;;18.90;39.50;;;;;;5100851;28;20164;-88
2023/02/21 14:53:21;;;;;;;2.13;1.00;;;18.90;39.60;;;;;;5101521;28;20167;-86
2023/02/21 14:56:15;;;;;;;2.33;1.40;;;18.80;39.60;;;;;;5098581;28;20615;-88
2023/02/21 14:58:58;;;;;;;2.47;1.10;;;18.80;39.40;;;;;;5099089;28;20190;-87
2023/02/21 15:01:47;;;;;;;3.25;1.40;;;18.90;39.20;;;;;;5096823;28;20581;-87
2023/02/21 15:04:20;;;;;;;2.55;1.20;;;18.90;39.10;;;;;;5103788;28;20203;-86
2023/02/21 15:07:03;;;;;;;2.50;1.25;;;18.90;39.20;;;;;;5088223;28;20167;-87
2023/02/21 15:09:34;;;;;;;1.33;1.20;;;18.90;39.10;;;;;;5082509;28;20219;-87
2023/02/21 15:12:02;;;;;;;4.63;1.30;;;18.90;39.00;;;;;;5085837;28;20203;-86
2023/02/21 15:14:40;;;;;;;4.78;1.70;;;18.90;39.10;;;;;;5081657;28;20173;-85
2023/02/21 15:17:20;;;;;;;6.15;1.58;;;18.90;39.20;;;;;;5082291;28;20206;-86
2023/02/21 15:20:01;;;;;;;7.35;1.63;;;18.90;39.20;;;;;;5100071;28;20161;-87
2023/02/21 15:23:41;;;;;;;;;;;;;;;;;;;;;
2023/02/21 15:26:28;;;;;;;5.03;1.50;;;18.80;39.10;;;;;;5029307;28;20246;-86
2023/02/21 15:29:39;;;;;;;;;;;;;;;;;;;;;
2023/02/21 16:51:54;;;;;;;22.77;2.92;;;19.20;39.60;;;;;;5127287;27;20698;-87